• Join FlightAware (Why Join?)
  • Login
  • US Flag 
08:13AM EDT


 

Airport Tracker/Info


-or-


 

Live Flight TrackerFlight Track Log ✈ DAL6119 ✈ 26-Jan-2014 ✈ KSDF - KLGA

Flight Track Log - Related Links

Times and Time Zones

All times are in EST time to prevent confusion due to time zone crossing. See the DAL6119 flight status page for this flight to view local times or setup timezone preferences in your user account.

Time Position Orientation Groundspeed Altitude Reporting Facility
EST Latitude Longitude Course Direction KTS MPH feet Rate Location/Type
06:33PM 38.1500 -85.7167 99° East 163 188 1,200  Level Louisville TRACON
06:35PM 38.0917 -85.6981 166° South 203 234 4,900 2,400 Climbing Indianapolis Center
06:36PM 38.0331 -85.6736 162° South 216 249 7,100 2,100 Climbing Indianapolis Center
06:37PM 38.0466 -85.1730 103° East  Level FlightAware Approximate
06:37PM 38.0042 -85.5892 113° Southeast 282 325 9,300  Level Indianapolis Center
06:38PM 38.0251 -85.0171 99° East  Level FlightAware Approximate
06:38PM 38.0219 -85.4733 79° East 343 395 10,700  Level Indianapolis Center
06:39PM 38.0339 -85.3042 85° East 401 461 11,900 1,200 Climbing Indianapolis Center
06:40PM 38.0419 -85.1606 86° East 424 488 13,200 1,260 Climbing Indianapolis Center
06:41PM 38.0350 -85.0075 93° East 435 501 14,600 1,260 Climbing Indianapolis Center
06:42PM 38.0158 -84.8550 99° East 438 504 15,900 1,260 Climbing Indianapolis Center
06:43PM 37.9967 -84.7008 99° East 440 506 17,300 1,560 Climbing Indianapolis Center
06:44PM 37.9731 -84.5222 99° East 440 506 19,200 1,560 Climbing Indianapolis Center
06:45PM 37.9611 -84.3658 95° East 445 512 20,600 1,260 Climbing Indianapolis Center
06:46PM 37.9553 -84.2053 93° East 452 520 21,900 1,260 Climbing Indianapolis Center
06:47PM 37.9475 -84.0439 93° East 456 525 23,300 1,320 Climbing Indianapolis Center
06:48PM 37.9406 -83.8817 93° East 460 529 24,700 1,260 Climbing Indianapolis Center
06:49PM 37.9344 -83.7181 93° East 464 534 26,000 1,140 Climbing Indianapolis Center
06:50PM 37.9261 -83.5558 94° East 461 531 27,100 1,080 Climbing Indianapolis Center
06:51PM 37.9153 -83.3664 94° East 462 532 28,300 1,080 Climbing Indianapolis Center
06:52PM 37.9061 -83.2003 94° East 468 539 29,400 1,020 Climbing Indianapolis Center
06:53PM 37.8986 -83.0319 93° East 474 545 30,500 1,020 Climbing Indianapolis Center
06:54PM 37.8886 -82.8631 94° East 477 549 31,600 1,020 Climbing Indianapolis Center
06:55PM 37.8792 -82.6925 94° East 480 552 32,600 1,020 Climbing Indianapolis Center
06:56PM 37.8703 -82.5172 94° East 493 567 33,700 960 Climbing Indianapolis Center
06:57PM 37.8597 -82.3411 94° East 498 573 34,700 600 Climbing Indianapolis Center
06:58PM 37.8497 -82.1653 94° East 500 575 35,000 120 Climbing Indianapolis Center
06:59PM 37.8378 -81.9822 95° East 519 597 35,000 480 Level Indianapolis Center
07:00PM 37.8239 -81.7631 95° East 527 606 36,100 960 Climbing Indianapolis Center
07:01PM 37.8131 -81.5825 94° East 518 596 37,000 420 Climbing Indianapolis Center
07:02PM 37.7983 -81.3964 96° East 514 592 37,000  Level Indianapolis Center
07:03PM 37.7864 -81.2206 95° East 515 593 37,000  Level Indianapolis Center
07:04PM 37.7844 -81.0458 91° East 512 589 37,000  Level Indianapolis Center
07:05PM 37.7972 -80.8689 85° East 516 594 37,000  Level Indianapolis Center
07:06PM 37.8103 -80.6583 85° East 513 590 37,000  Level Indianapolis Center
07:07PM 37.8197 -80.5183 85° East 516 594 37,000  Level Washington Center
07:08PM 37.8333 -80.3353 85° East 516 594 37,000  Level Washington Center
07:09PM 37.8447 -80.1519 85° East 516 594 37,000  Level Washington Center
07:10PM 37.8536 -79.9683 86° East 516 594 37,000  Level Washington Center
07:11PM 37.8669 -79.7717 85° East 516 594 37,000  Level Washington Center
07:12PM 37.8775 -79.5856 86° East 516 594 37,000  Level Washington Center
07:13PM 37.8875 -79.3992 86° East 522 601 37,000  Level Washington Center
07:14PM 37.8994 -79.2181 85° East 522 601 37,000  Level Washington Center
07:15PM 37.9133 -79.0344 84° East 522 601 37,000  Level Washington Center
07:16PM 37.9350 -78.8539 81° East 517 595 37,000  Level Washington Center
07:17PM 37.9539 -78.6861 82° East 523 602 37,000  Level Washington Center
07:18PM 37.9772 -78.5053 81° East 523 602 37,000  Level Washington Center
07:19PM 37.9983 -78.3217 82° East 523 602 37,000  Level Washington Center
07:20PM 38.0172 -78.1194 83° East 523 602 37,000  Level Washington Center
07:21PM 38.0247 -77.9564 87° East 517 595 37,000  Level Washington Center
07:22PM 38.0389 -77.7722 84° East 517 595 37,000  Level Washington Center
07:23PM 38.0483 -77.5878 86° East 517 595 37,000  Level Washington Center
07:24PM 38.0781 -77.4067 78° East 517 595 37,000  Level Washington Center
07:25PM 38.1161 -77.2253 75° East 522 601 37,000  Level Washington Center
07:26PM 38.1583 -77.0231 75° East 527 606 37,000  Level Washington Center
07:27PM 38.1958 -76.8442 75° East 527 606 37,000  Level Washington Center
07:28PM 38.2331 -76.6597 76° East 527 606 37,000 -60 Level Washington Center
07:29PM 38.2722 -76.4803 74° East 527 606 36,900 -600 Descending Washington Center
07:30PM 38.3458 -76.3461 55° Northeast 519 597 35,900 -1,680 Descending Washington Center
07:31PM 38.4633 -76.2386 36° Northeast 499 574 33,700 -2,280 Descending Washington Center
07:32PM 38.5828 -76.1333 35° Northeast 504 580 31,400 -2,160 Descending Washington Center
07:33PM 38.6917 -76.0278 37° Northeast 504 580 29,400 -1,980 Descending Washington Center
07:34PM 38.8044 -75.9247 35° Northeast 504 580 27,500 -1,260 Descending Washington Center
07:35PM 38.9172 -75.8183 36° Northeast 499 574 27,000 -600 Descending Washington Center
07:36PM 39.0236 -75.7172 36° Northeast 493 567 26,400 -1,020 Descending Washington Center
07:37PM 39.1322 -75.6131 37° Northeast 487 560 25,000 -1,260 Descending Washington Center
07:38PM 39.2383 -75.5139 36° Northeast 481 554 23,900 -1,920 Descending Washington Center
07:39PM 39.3467 -75.4172 35° Northeast 475 547 21,300 -2,520 Descending Washington Center
07:40PM 39.4467 -75.3281 35° Northeast 458 527 19,000 -1,380 Descending Washington Center
07:41PM 39.5442 -75.2389 35° Northeast 438 504 18,600 -840 Descending Washington Center
07:42PM 39.6378 -75.1497 36° Northeast 432 497 17,400 -1,260 Descending Washington Center
07:43PM 39.7478 -75.0544 34° Northeast 427 491 16,100 -1,440 Descending Washington Center
07:44PM 39.8328 -74.9808 34° Northeast 418 481 14,500 -1,620 Descending Washington Center
07:45PM 39.9333 -74.8667 41° Northeast 403 464 12,800 -1,500 Descending New York TRACON
07:46PM 40.0167 -74.7667 43° Northeast 405 466 11,500 -1,320 Descending New York TRACON
07:47PM 40.0833 -74.6667 49° Northeast 390 449 10,200 -720 Descending New York TRACON
07:48PM 40.1667 -74.5500 47° Northeast 392 451 10,100 -60 Descending New York TRACON
07:49PM 40.2333 -74.4500 49° Northeast 394 453 10,100  Level New York TRACON
07:50PM 40.3167 -74.3500 42° Northeast 393 452 10,100 -120 Level New York TRACON
07:51PM 40.3833 -74.2667 44° Northeast 333 383 9,900 -900 Descending New York TRACON
07:52PM 40.4667 -74.2000 31° Northeast 312 359 8,300 -1,500 Descending New York TRACON
07:53PM 40.5333 -74.1167 44° Northeast 309 356 6,900 -1,200 Descending New York TRACON
07:54PM 40.6000 -74.0500 37° Northeast 298 343 6,000 -1,200 Descending New York TRACON
07:55PM 40.6667 -74.0000 30° Northeast 289 333 4,600 -1,020 Descending New York TRACON
07:56PM 40.7167 -73.9167 52° Northeast 294 338 4,000 -300 Descending New York TRACON
07:57PM 40.7667 -73.8333 52° Northeast 297 342 4,000  Level New York TRACON
07:58PM 40.8000 -73.7500 62° Northeast 238 274 4,000  Level New York TRACON
07:59PM 40.8500 -73.6833 45° Northeast 232 267 4,000  Level New York TRACON
08:00PM 40.9000 -73.6500 27° Northeast 223 257 4,000  Level New York TRACON
08:01PM 40.9500 -73.6000 37° Northeast 237 273 4,000  Level New York TRACON
08:02PM 41.0000 -73.6000 360° North 188 216 4,000 -60 Level New York TRACON
08:03PM 41.0167 -73.6500 294° West 150 173 3,900 -300 Descending New York TRACON
08:04PM 40.9833 -73.7000 229° Southwest 150 173 3,500 -480 Descending New York TRACON
08:05PM 40.9500 -73.7333 217° Southwest 146 168 3,000 -300 Descending New York TRACON
08:06PM 40.9167 -73.7667 217° Southwest 145 167 3,000 -240 Level New York TRACON
08:07PM 40.8833 -73.7833 201° Southwest 145 167 2,600 -660 Descending New York TRACON
08:08PM 40.8500 -73.8167 217° Southwest 132 152 1,700 -780 Descending New York TRACON
08:09PM 40.8167 -73.8333 201° Southwest 117 135 1,000 -720 Descending New York TRACON
08:10PM 40.8000 -73.8667 237° Southwest 124 143 300 -720 Descending New York TRACON